La Verne, CA (91750)

12:46 AM PDT on August 31, 2015 (GMT -0700)
Bonita High School | | Change Station
CLOSE
Current Station
Personal Weather Station
Location: La Verne, CA
Elevation: 1049 ft
Nearby Weather Stations

Elev 1049 ft 34.11 °N, 117.76 °W | Updated 57 seconds ago

Partly Cloudy
Partly Cloudy
70.4 °F
Feels Like 72 °F
N
0.0
Wind Variable Wind from NW
Gusts 0.0 mph

Today
High -- | Low -- °F
--% Chance of Precip.
Yesterday
High -- | Low -- °F
Precip. -- in
6:23 AM 7:18 PM
Waning Gibbous, 96% visible
Pressure 29.82 in
Visibility 10.0 miles
Clouds Scattered Clouds 20000 ft
Heat Index 72 °F
Dew Point 63 °F
Humidity 77%
Rainfall 0.00 in
Snow Depth Not available.
UV 0 out of 12
Pollen 6.00 out of 12
Air Quality Not available.
Flu Activity Not available.
METAR KONT 310653Z 26006KT 10SM SCT200 23/16 A2987 RMK AO2 SLP096 T02280161
Pressure 29.82 in
Visibility 10.0 miles
Clouds Scattered Clouds 20000 ft
Heat Index 72 °F
Dew Point 63 °F
Humidity 77%
Rainfall 0.00 in
Snow Depth Not available.
UV 0 out of 12
Pollen 6.00 out of 12
Air Quality Not available.
Flu Activity Not available.
METAR KONT 310653Z 26006KT 10SM SCT200 23/16 A2987 RMK AO2 SLP096 T02280161

10-Day Weather Forecast

×

Almanac

Astronomy

Aug. 31, 2015 Rise Set
Actual Time
Civil Twilight
Nautical Twilight
Astronomical Twilight
Moon
Length of Visible Light
Length of Day
Tomorrow will be .
, % of the Moon is Illuminated

Today's Extremes

State Highs State Lows

Community

WunderPhotos

Upload Photos

1,851,220 photos uploaded!

WunderBlogs® & News

Nearby

Air Quality

  Air Quality AQ Index Pollutant
Not available.

Snow Depth

Station Depth Elevation

Earthquake Activity

City Distance Mag. Time & Date
Minimum magnitude displayed is 2.5.

Coastal Water Temperatures

Place Temperature

Stations

Nearby Weather Stations

Station Location Temp. Windchill Dew Point Humidity Wind Precip. Elev Updated Type